Observations de surface / France / LFRD

Québec | Canada | États-Unis | France | UK | Europe | Ailleurs

Affichage: Infos & localisation pour LFRD | Aide pour décoder les METARs

LFRD DINARD/PLEURTUIT -- FR
Raw surface observations for station LFRD
LFRD 211700Z AUTO 12004KT 4800 BR NSC M01/M04 Q1024 BECMG 7000 NSW=
LFRD 211630Z AUTO 12002KT 5000 BR NSC 01/M03 Q1024 NOSIG=
LFRD 211600Z AUTO VRB01KT 6000 NSC 03/M03 Q1024 NOSIG=
LFRD 211530Z AUTO VRB03KT 5000 HZ NSC 03/M03 Q1024 NOSIG=
LFRD 211500Z AUTO 16004KT 5000 HZ NSC 02/M03 Q1024 NOSIG=
LFRD 211430Z AUTO 16003KT 4900 BR NSC 02/M03 Q1024 BECMG 7000 NSW=
LFRD 211400Z AUTO 16004KT 120V180 5000 HZ NSC 03/M03 Q1025 NOSIG=
LFRD 211330Z AUTO 16006KT 130V190 6000 NSC 03/M03 Q1025 NOSIG=
LFRD 211300Z AUTO 15006KT 110V190 7000 NSC 02/M04 Q1025 NOSIG=
LFRD 211230Z AUTO 17005KT 6000 NSC 02/M04 Q1025 NOSIG=
LFRD 211200Z AUTO 18005KT 130V210 5000 BR NSC 01/M03 Q1025 NOSIG=
LFRD 211130Z AUTO VRB02KT 4500 BR NSC 01/M03 Q1026 BECMG 7000 NSW=
LFRD 211100Z AUTO VRB02KT 4700 BR NSC 01/M04 Q1026 BECMG 7000 NSW=
LFRD 211030Z AUTO 17004KT 4200 BR NSC M00/M03 Q1026 BECMG 7000 NSW=
LFRD 211000Z AUTO 19005KT 3800 BR FEW011 M02/M04 Q1026 BECMG 7000 NSW=
LFRD 210930Z AUTO 18004KT 3700 BR NSC M03/M04 Q1026 BECMG 7000 NSW=
LFRD 210900Z AUTO 15004KT 3500 BR NSC M04/M05 Q1026 BECMG 7000 NSW=
LFRD 210830Z AUTO 14005KT 3100 BR NSC M05/M06 Q1027 BECMG 7000 NSW=
LFRD 210800Z AUTO 12004KT 2700 BR NSC M07/M08 Q1026 BECMG 7000 NSW=
LFRD 210730Z AUTO 00000KT 3500 1700 BR NSC M07/M09 Q1026 BECMG 7000 NSW=
LFRD 210700Z AUTO VRB01KT 3600 BR NSC M07/M08 Q1026 NOSIG=
LFRD 210630Z AUTO 00000KT 3100 BR NSC M07/M09 Q1026 NOSIG=
LFRD 210600Z AUTO 18001KT 3400 BR NSC M07/M08 Q1026 NOSIG=
LFRD 210530Z AUTO 18002KT 3600 BR NSC M07/M08 Q1026 NOSIG=
LFRD 210500Z AUTO 00000KT 3100 BR NSC M07/M08 Q1026 NOSIG=
LFRD 210430Z AUTO 00000KT 3900 BR NSC M07/M08 Q1027 NOSIG=
LFRD 210400Z AUTO VRB03KT 3900 BR NSC M07/M07 Q1027 NOSIG=
LFRD 210330Z AUTO 09003KT 3800 BR NSC M07/M08 Q1027 NOSIG=
LFRD 210300Z AUTO 11003KT 3900 BR NSC M06/M08 Q1027 NOSIG=
LFRD 210230Z AUTO 08004KT 4500 BR NSC M06/M07 Q1027 NOSIG=
LFRD 210200Z AUTO 09004KT 4600 BR NSC M06/M07 Q1027 NOSIG=
LFRD 210130Z AUTO 09003KT 4300 BR NSC M06/M07 Q1027 NOSIG=
LFRD 210100Z AUTO 09003KT 060V120 4600 BR NSC M05/M07 Q1027 NOSIG=
LFRD 210030Z AUTO 12005KT 5000 BR NSC M04/M06 Q1027 NOSIG=
LFRD 210000Z AUTO 11005KT 5000 BR NSC M03/M05 Q1027 NOSIG=
LFRD 202330Z AUTO 11005KT 5000 BR NSC M04/M05 Q1028 NOSIG=
LFRD 202300Z AUTO 10005KT 5000 BR NSC M04/M06 Q1028 NOSIG=
LFRD 202230Z AUTO 11005KT 5000 BR NSC M04/M05 Q1028 NOSIG=
LFRD 202200Z AUTO 12004KT 5000 BR NSC M04/M05 Q1028 NOSIG=
LFRD 202130Z AUTO 10002KT 5000 BR NSC M05/M06 Q1028 NOSIG=
LFRD 202100Z AUTO 11004KT 5000 BR NSC M05/M06 Q1028 NOSIG=
LFRD 202030Z AUTO 12003KT 5000 BR NSC M05/M06 Q1028 NOSIG=
LFRD 202000Z AUTO 12004KT 5000 BR NSC M04/M06 Q1028 NOSIG=
LFRD 201930Z AUTO 11003KT 5000 BR NSC M04/M06 Q1028 NOSIG=
LFRD 201900Z AUTO 10002KT 6000 NSC M04/M06 Q1028 NOSIG=
LFRD 201830Z AUTO 12003KT 6000 NSC M03/M06 Q1028 NOSIG=
LFRD 201800Z AUTO 11004KT 6000 NSC M02/M05 Q1028 NOSIG=
LFRD 201730Z AUTO 10003KT 7000 NSC M02/M05 Q1028 NOSIG=
LFRD 201700Z AUTO 06003KT 8000 NSC M01/M05 Q1027 NOSIG=